Time;durP1;ratioP1;P1;durP2;ratioP2;P2;SDS_P1;SDS_P2;PMS_P1;PMS_P2;Temp;Humidity;BMP_temperature;BMP_pressure;BME280_temperature;BME280_humidity;BME280_pressure;Samples;Min_cycle;Max_cycle;Signal;HPM_P1;HPM_P2
2021/05/26 00:00:24;;;;;;;4.47;1.70;;;10.10;99.90;;;;;;5033961;28;20064;-79
2021/05/26 00:02:50;;;;;;;4.03;1.35;;;10.70;99.90;;;;;;5054445;28;20032;-80
2021/05/26 00:05:16;;;;;;;6.38;1.90;;;10.60;99.90;;;;;;5036669;28;20098;-75
2021/05/26 00:07:42;;;;;;;5.63;1.52;;;10.70;99.90;;;;;;5050162;28;20635;-75
2021/05/26 00:10:08;;;;;;;4.07;1.88;;;10.70;99.90;;;;;;5030356;28;20029;-77
2021/05/26 00:12:34;;;;;;;7.13;1.70;;;10.60;99.90;;;;;;5043849;28;20076;-79
2021/05/26 00:15:00;;;;;;;6.57;2.08;;;10.60;99.90;;;;;;5054422;28;20052;-78
2021/05/26 00:17:27;;;;;;;3.72;1.20;;;;;;;;;;5050073;28;20048;-77
2021/05/26 00:19:53;;;;;;;6.20;1.67;;;10.60;99.90;;;;;;5056274;28;20035;-79
2021/05/26 00:22:19;;;;;;;4.53;1.70;;;10.60;99.90;;;;;;5058271;28;20028;-77
2021/05/26 00:24:44;;;;;;;2.90;1.48;;;10.60;99.90;;;;;;5061032;28;20016;-78
2021/05/26 00:27:10;;;;;;;5.22;1.73;;;10.50;99.90;;;;;;5036479;28;20043;-79
2021/05/26 00:29:36;;;;;;;4.75;1.83;;;;;;;;;;5038179;28;20017;-80
2021/05/26 00:32:02;;;;;;;2.95;1.45;;;;;;;;;;5056012;28;20384;-79
2021/05/26 00:34:27;;;;;;;4.07;1.63;;;10.50;99.90;;;;;;5053933;28;20041;-76
2021/05/26 00:36:53;;;;;;;5.50;1.60;;;;;;;;;;5042187;28;20040;-76
2021/05/26 00:39:19;;;;;;;3.80;1.80;;;10.50;99.90;;;;;;5036489;28;20036;-78
2021/05/26 00:41:45;;;;;;;4.28;1.80;;;9.30;99.90;;;;;;5048892;28;20033;-80
2021/05/26 00:44:14;;;;;;;3.33;1.70;;;10.50;99.90;;;;;;5049003;28;20032;-76
2021/05/26 00:46:41;;;;;;;3.40;1.80;;;;;;;;;;5049898;28;20032;-81
2021/05/26 00:49:07;;;;;;;4.13;1.70;;;10.50;99.90;;;;;;5065089;28;20460;-77
2021/05/26 00:51:33;;;;;;;5.60;2.05;;;;;;;;;;5040766;28;20020;-77
2021/05/26 00:53:58;;;;;;;4.38;2.08;;;10.40;99.90;;;;;;5063568;28;20027;-77
2021/05/26 00:56:24;;;;;;;3.72;1.45;;;10.50;99.90;;;;;;5044528;28;20573;-79
2021/05/26 00:58:50;;;;;;;3.92;1.70;;;10.50;99.90;;;;;;5051221;28;20025;-77
2021/05/26 01:01:17;;;;;;;4.72;2.00;;;10.40;99.90;;;;;;5041015;28;20024;-78
2021/05/26 01:03:42;;;;;;;4.90;1.73;;;10.50;99.90;;;;;;5058752;28;20025;-79
2021/05/26 01:06:08;;;;;;;3.50;1.95;;;10.40;99.90;;;;;;5043796;28;20023;-77
2021/05/26 01:08:34;;;;;;;7.00;2.38;;;10.40;99.90;;;;;;5056788;28;20085;-80
2021/05/26 01:11:00;;;;;;;3.00;1.52;;;;;;;;;;5036816;28;20025;-77
2021/05/26 01:13:25;;;;;;;3.75;1.83;;;10.40;99.90;;;;;;5057382;28;20033;-78
2021/05/26 01:15:51;;;;;;;3.75;1.75;;;10.40;99.90;;;;;;5041899;28;20029;-81
2021/05/26 01:18:21;;;;;;;10.45;2.92;;;10.40;99.90;;;;;;5058450;28;20112;-78
2021/05/26 01:20:47;;;;;;;3.83;1.90;;;10.40;99.90;;;;;;5059837;28;20035;-79
2021/05/26 01:23:16;;;;;;;4.93;1.70;;;;;;;;;;5061788;28;20104;-78
2021/05/26 01:25:47;;;;;;;6.15;1.90;;;10.40;99.90;;;;;;5061654;28;20325;-78
2021/05/26 01:28:13;;;;;;;5.38;2.00;;;10.40;99.90;;;;;;5059606;28;20029;-77
2021/05/26 01:30:39;;;;;;;5.40;1.98;;;10.40;99.90;;;;;;5057321;28;20082;-78
2021/05/26 01:33:05;;;;;;;4.50;1.90;;;;;;;;;;5060763;28;20025;-78
2021/05/26 01:35:33;;;;;;;4.90;1.73;;;;;;;;;;5047596;28;20028;-77
2021/05/26 01:37:59;;;;;;;3.35;1.75;;;10.40;99.90;;;;;;5059658;28;20036;-79
2021/05/26 01:40:25;;;;;;;4.28;2.00;;;;;;;;;;5038661;28;20041;-79
2021/05/26 01:42:50;;;;;;;4.40;1.92;;;10.40;99.90;;;;;;5041746;28;20037;-78
2021/05/26 01:45:18;;;;;;;5.90;2.20;;;10.40;99.90;;;;;;5062161;28;20513;-77
2021/05/26 01:47:50;;;;;;;4.18;1.85;;;10.40;99.90;;;;;;5060586;28;20028;-79
2021/05/26 01:50:19;;;;;;;6.13;1.60;;;10.40;99.90;;;;;;5059782;28;20027;-79
2021/05/26 01:52:47;;;;;;;3.97;1.67;;;10.40;99.90;;;;;;5051597;28;20115;-80
2021/05/26 01:55:14;;;;;;;5.95;1.83;;;10.40;99.90;;;;;;5059344;28;20475;-75
2021/05/26 01:57:42;;;;;;;10.32;2.17;;;10.40;99.90;;;;;;5045094;28;20055;-80
2021/05/26 02:00:08;;;;;;;3.60;1.75;;;10.50;99.90;;;;;;5055506;28;20029;-79
2021/05/26 02:02:34;;;;;;;5.25;1.88;;;10.50;99.90;;;;;;5064628;28;20074;-77
2021/05/26 02:04:59;;;;;;;6.15;1.98;;;10.50;99.90;;;;;;5056692;28;20033;-74
2021/05/26 02:07:25;;;;;;;3.92;1.45;;;10.50;99.90;;;;;;5059582;28;20040;-79
2021/05/26 02:09:51;;;;;;;4.68;1.75;;;;;;;;;;5040777;28;20039;-78
2021/05/26 02:12:23;;;;;;;7.80;2.67;;;10.30;99.90;;;;;;5059847;28;20040;-78
2021/05/26 02:14:53;;;;;;;3.03;1.83;;;10.30;99.90;;;;;;5060324;28;20028;-79
2021/05/26 02:17:19;;;;;;;3.45;1.70;;;10.30;99.90;;;;;;5038554;28;20040;-77
2021/05/26 02:19:45;;;;;;;3.95;1.90;;;10.30;99.90;;;;;;5047746;28;20061;-78
2021/05/26 02:22:11;;;;;;;4.97;2.20;;;11.40;99.90;;;;;;5061168;28;20154;-80
2021/05/26 02:24:37;;;;;;;4.93;1.80;;;;;;;;;;5060441;28;20139;-78
2021/05/26 02:27:03;;;;;;;5.38;1.90;;;10.10;99.90;;;;;;5061896;28;20035;-78
2021/05/26 02:29:29;;;;;;;4.90;2.10;;;10.20;99.90;;;;;;5063926;28;20024;-78
2021/05/26 02:31:54;;;;;;;5.57;1.88;;;10.20;99.90;;;;;;5047410;28;20438;-78
2021/05/26 02:34:20;;;;;;;5.70;2.55;;;10.20;99.90;;;;;;5057433;28;20411;-79
2021/05/26 02:36:46;;;;;;;5.15;2.05;;;;;;;;;;5048222;28;20048;-78
2021/05/26 02:39:15;;;;;;;3.72;2.10;;;10.20;99.90;;;;;;5044746;28;20029;-77
2021/05/26 02:41:41;;;;;;;5.72;2.05;;;10.20;99.90;;;;;;5056089;28;20096;-80
2021/05/26 02:44:07;;;;;;;4.90;1.90;;;10.20;99.90;;;;;;5044605;28;20575;-78
2021/05/26 02:46:32;;;;;;;4.05;1.83;;;10.30;99.90;;;;;;5064630;28;20119;-79
2021/05/26 02:48:58;;;;;;;5.30;2.15;;;10.30;99.90;;;;;;5057349;28;20116;-78
2021/05/26 02:51:26;;;;;;;5.68;2.17;;;10.30;99.90;;;;;;5059640;28;20048;-80
2021/05/26 02:53:51;;;;;;;9.05;2.05;;;10.30;99.90;;;;;;5064394;28;20106;-77
2021/05/26 02:56:17;;;;;;;10.15;2.00;;;10.30;99.90;;;;;;5042026;28;20475;-77
2021/05/26 02:58:43;;;;;;;11.25;2.22;;;10.30;99.90;;;;;;5046093;28;20037;-79
2021/05/26 03:01:09;;;;;;;4.28;1.67;;;10.30;99.90;;;;;;5056951;28;20052;-77
2021/05/26 03:03:37;;;;;;;6.03;1.73;;;10.30;99.90;;;;;;5039463;28;20029;-78
2021/05/26 03:06:02;;;;;;;6.05;1.92;;;10.30;99.90;;;;;;5052952;28;20082;-77
2021/05/26 03:08:30;;;;;;;7.65;1.73;;;10.40;99.90;;;;;;5055805;28;20024;-74
2021/05/26 03:10:58;;;;;;;2.97;1.65;;;10.30;99.90;;;;;;5044243;28;20031;-78
2021/05/26 03:13:25;;;;;;;5.35;1.60;;;10.30;99.90;;;;;;5037862;28;20078;-79
2021/05/26 03:15:51;;;;;;;4.05;1.73;;;10.30;99.90;;;;;;5046019;28;20065;-79
2021/05/26 03:18:17;;;;;;;5.95;1.70;;;10.30;99.90;;;;;;5031991;28;20068;-78
2021/05/26 03:20:43;;;;;;;7.65;1.58;;;10.30;99.90;;;;;;5042717;28;20093;-78
2021/05/26 03:23:09;;;;;;;2.80;1.17;;;10.30;99.90;;;;;;5059457;28;20437;-77
2021/05/26 03:25:35;;;;;;;4.55;1.65;;;;;;;;;;5044423;28;20553;-77
2021/05/26 03:28:01;;;;;;;4.97;2.28;;;;;;;;;;5056388;28;20500;-77
2021/05/26 03:30:27;;;;;;;6.13;1.65;;;;;;;;;;5054191;28;20039;-77
2021/05/26 03:32:52;;;;;;;5.38;1.70;;;10.20;99.90;;;;;;5044126;28;20507;-75
2021/05/26 03:35:18;;;;;;;5.80;1.42;;;;;;;;;;5040737;28;20048;-78
2021/05/26 03:37:45;;;;;;;5.45;1.50;;;;;;;;;;5045267;28;20021;-76
2021/05/26 03:40:12;;;;;;;4.35;1.40;;;10.20;99.90;;;;;;5053297;28;20086;-77
2021/05/26 03:42:39;;;;;;;4.72;2.20;;;10.20;99.90;;;;;;5057389;28;20478;-76
2021/05/26 03:45:07;;;;;;;3.92;1.65;;;10.20;99.90;;;;;;5044786;28;20411;-76
2021/05/26 03:47:33;;;;;;;6.00;1.58;;;;;;;;;;5062259;28;20036;-80
2021/05/26 03:49:59;;;;;;;6.57;1.60;;;10.30;99.90;;;;;;5055813;28;20024;-77
2021/05/26 03:52:25;;;;;;;3.60;1.30;;;;;;;;;;5045821;28;20016;-79
2021/05/26 03:54:50;;;;;;;4.43;1.50;;;13.70;99.90;;;;;;5044009;28;20044;-77
2021/05/26 03:57:16;;;;;;;4.43;1.55;;;;;;;;;;5043740;28;20048;-78
2021/05/26 03:59:42;;;;;;;6.40;1.80;;;10.10;99.90;;;;;;5055586;28;20043;-77
2021/05/26 04:02:08;;;;;;;3.42;1.52;;;;;;;;;;5035566;28;20451;-78
2021/05/26 04:04:37;;;;;;;5.03;1.85;;;10.00;99.90;;;;;;5056989;28;20032;-78
2021/05/26 04:07:03;;;;;;;7.30;2.42;;;10.10;99.90;;;;;;5059566;28;20119;-78
2021/05/26 04:09:29;;;;;;;3.55;1.50;;;;;;;;;;5042903;28;20071;-79
2021/05/26 04:11:55;;;;;;;5.10;1.48;;;10.10;99.90;;;;;;5058505;28;20025;-77
2021/05/26 04:14:21;;;;;;;3.42;1.38;;;;;;;;;;5038332;28;20087;-77
2021/05/26 04:16:48;;;;;;;9.43;2.58;;;10.10;99.90;;;;;;5061000;28;20483;-78
2021/05/26 04:19:14;;;;;;;7.38;1.88;;;10.10;99.90;;;;;;5058605;28;20060;-78
2021/05/26 04:21:43;;;;;;;5.88;1.95;;;10.10;99.90;;;;;;5056768;28;20535;-77
2021/05/26 04:24:09;;;;;;;4.03;1.50;;;10.10;99.90;;;;;;5057909;28;20535;-76
2021/05/26 04:26:35;;;;;;;3.28;1.48;;;;;;;;;;5045000;28;20036;-76
2021/05/26 04:29:00;;;;;;;5.88;1.70;;;10.10;99.90;;;;;;5041295;28;20037;-78
2021/05/26 04:31:26;;;;;;;5.85;1.77;;;10.10;99.90;;;;;;5060079;28;20423;-76
2021/05/26 04:33:52;;;;;;;4.78;1.63;;;;;;;;;;5057641;28;20036;-77
2021/05/26 04:36:18;;;;;;;7.80;1.90;;;10.20;99.90;;;;;;5039026;28;20112;-76
2021/05/26 04:38:43;;;;;;;6.43;1.58;;;;;;;;;;5053089;28;20029;-77
2021/05/26 04:41:09;;;;;;;4.85;2.20;;;;;;;;;;5036483;28;20090;-77
2021/05/26 04:43:35;;;;;;;6.43;2.00;;;10.10;99.90;;;;;;5054825;28;20376;-77
2021/05/26 04:46:01;;;;;;;6.68;1.95;;;10.20;99.90;;;;;;5044341;28;20028;-76
2021/05/26 04:48:29;;;;;;;6.90;2.08;;;10.20;99.90;;;;;;5042685;28;20033;-77
2021/05/26 04:50:55;;;;;;;5.63;1.80;;;10.10;99.90;;;;;;5055376;28;20117;-76
2021/05/26 04:53:21;;;;;;;6.18;1.95;;;;;;;;;;5038023;28;20491;-77
2021/05/26 04:55:47;;;;;;;6.95;2.20;;;10.20;99.90;;;;;;5045654;28;20202;-78
2021/05/26 04:58:15;;;;;;;3.67;2.10;;;10.20;99.90;;;;;;5058379;28;20028;-78
2021/05/26 05:00:41;;;;;;;3.78;1.83;;;10.30;99.90;;;;;;5049030;28;20032;-80
2021/05/26 05:03:07;;;;;;;6.38;2.75;;;;;;;;;;5039943;28;20059;-74
2021/05/26 05:05:33;;;;;;;5.43;1.73;;;;;;;;;;5039720;28;20032;-76
2021/05/26 05:08:04;;;;;;;5.95;1.92;;;10.40;99.90;;;;;;5061127;28;20388;-76
2021/05/26 05:10:30;;;;;;;3.47;1.77;;;10.40;99.90;;;;;;5057556;28;20036;-76
2021/05/26 05:12:56;;;;;;;8.48;2.00;;;;;;;;;;5042553;28;20020;-77
2021/05/26 05:15:22;;;;;;;6.38;1.77;;;10.40;99.90;;;;;;5062463;28;20510;-75
2021/05/26 05:17:49;;;;;;;5.03;1.63;;;10.40;99.90;;;;;;5047565;28;20052;-79
2021/05/26 05:20:17;;;;;;;6.18;1.92;;;10.50;99.90;;;;;;5047088;28;20506;-77
2021/05/26 05:22:42;;;;;;;5.60;1.75;;;10.50;99.90;;;;;;5061744;28;20037;-77
2021/05/26 05:25:09;;;;;;;6.53;1.70;;;10.50;99.90;;;;;;5065117;28;20398;-77
2021/05/26 05:27:35;;;;;;;6.05;1.98;;;10.50;99.90;;;;;;5058346;28;20078;-78
2021/05/26 05:30:01;;;;;;;4.95;1.50;;;;;;;;;;5052933;28;20028;-77
2021/05/26 05:32:26;;;;;;;4.35;1.48;;;10.50;99.90;;;;;;5059093;28;20484;-77
2021/05/26 05:34:52;;;;;;;7.47;1.60;;;;;;;;;;5065825;28;20090;-76
2021/05/26 05:37:18;;;;;;;4.50;1.45;;;;;;;;;;5038770;28;20066;-77
2021/05/26 05:39:44;;;;;;;4.68;1.13;;;10.60;99.90;;;;;;5047693;28;20033;-77
2021/05/26 05:42:10;;;;;;;8.18;2.75;;;10.60;99.90;;;;;;5054847;28;20033;-78
2021/05/26 05:44:35;;;;;;;5.30;1.52;;;10.50;99.90;;;;;;5057100;28;20031;-75
2021/05/26 05:47:01;;;;;;;8.07;1.50;;;;;;;;;;5037374;28;20043;-76
2021/05/26 05:49:27;;;;;;;3.80;1.58;;;10.60;99.90;;;;;;5058926;28;20074;-78
2021/05/26 05:51:53;;;;;;;9.32;1.52;;;;;;;;;;5041766;28;20025;-76
2021/05/26 05:54:19;;;;;;;6.07;2.10;;;;;;;;;;5062227;28;20458;-76
2021/05/26 05:56:45;;;;;;;5.80;1.65;;;;;;;;;;5060477;28;20110;-77
2021/05/26 05:59:10;;;;;;;5.70;1.63;;;10.60;99.90;;;;;;5061126;28;20055;-75
2021/05/26 06:01:36;;;;;;;4.65;2.00;;;10.60;99.90;;;;;;5043515;28;20507;-77
2021/05/26 06:04:01;;;;;;;7.25;1.40;;;10.70;99.90;;;;;;5035451;28;20055;-78
2021/05/26 06:06:27;;;;;;;8.63;2.30;;;;;;;;;;5044273;28;20089;-76
2021/05/26 06:08:53;;;;;;;4.35;1.45;;;10.70;99.90;;;;;;5044035;28;20343;-78
2021/05/26 06:11:19;;;;;;;5.80;2.20;;;10.50;99.90;;;;;;5045839;28;20024;-77
2021/05/26 06:13:48;;;;;;;4.60;2.03;;;;;;;;;;5051289;28;20024;-77
2021/05/26 06:16:14;;;;;;;5.78;1.63;;;;;;;;;;5034179;28;20025;-79
2021/05/26 06:18:40;;;;;;;4.38;1.80;;;;;;;;;;5037930;28;20086;-79
2021/05/26 06:21:06;;;;;;;11.18;1.75;;;10.80;99.90;;;;;;5051711;28;20136;-77
2021/05/26 06:23:32;;;;;;;3.72;1.50;;;;;;;;;;5051705;28;20037;-78
2021/05/26 06:25:57;;;;;;;9.30;2.10;;;10.90;99.90;;;;;;5051088;28;20036;-77
2021/05/26 06:28:25;;;;;;;5.47;2.00;;;10.80;99.90;;;;;;5055613;28;20037;-77
2021/05/26 06:30:52;;;;;;;4.47;1.88;;;;;;;;;;5052436;28;20108;-75
2021/05/26 06:33:18;;;;;;;5.78;2.28;;;10.90;99.90;;;;;;5049649;28;20408;-78
2021/05/26 06:35:43;;;;;;;9.77;2.22;;;11.00;99.90;;;;;;5030951;28;20028;-78
2021/05/26 06:38:09;;;;;;;4.68;1.52;;;11.00;99.90;;;;;;5049952;28;20028;-76
2021/05/26 06:40:34;;;;;;;8.50;2.05;;;10.90;99.90;;;;;;5031299;28;20036;-76
2021/05/26 06:43:00;;;;;;;5.90;2.28;;;10.90;99.90;;;;;;5053156;28;20062;-77
2021/05/26 06:45:25;;;;;;;7.55;1.95;;;10.90;99.90;;;;;;5053671;28;20066;-77
2021/05/26 06:47:51;;;;;;;6.85;2.20;;;10.80;99.90;;;;;;5056748;28;20040;-76
2021/05/26 06:50:17;;;;;;;4.22;1.70;;;;;;;;;;5066273;28;20067;-80
2021/05/26 06:52:43;;;;;;;5.68;1.75;;;;;;;;;;5056567;28;20037;-78
2021/05/26 06:55:09;;;;;;;5.57;2.25;;;10.90;99.90;;;;;;5062113;28;20486;-79
2021/05/26 06:57:35;;;;;;;5.18;1.90;;;10.80;99.90;;;;;;5043825;28;20163;-78
2021/05/26 07:00:01;;;;;;;3.65;1.75;;;10.90;99.90;;;;;;5034021;28;20035;-76
2021/05/26 07:02:26;;;;;;;5.10;2.08;;;10.90;99.90;;;;;;5053744;28;20060;-82
2021/05/26 07:04:52;;;;;;;9.80;2.30;;;10.90;99.90;;;;;;5047504;28;20043;-77
2021/05/26 07:07:18;;;;;;;7.43;2.30;;;;;;;;;;5045781;28;20053;-77
2021/05/26 07:09:44;;;;;;;5.05;2.03;;;;;;;;;;5039319;28;20040;-79
2021/05/26 07:12:10;;;;;;;5.50;2.10;;;10.90;99.90;;;;;;5052735;28;20021;-79
2021/05/26 07:14:37;;;;;;;6.05;2.50;;;;;;;;;;5038682;28;20028;-76
2021/05/26 07:17:03;;;;;;;6.88;2.30;;;10.80;99.90;;;;;;5059666;28;20041;-77
2021/05/26 07:19:28;;;;;;;6.93;2.75;;;10.70;99.90;;;;;;5037738;28;20565;-78
2021/05/26 07:21:54;;;;;;;7.00;2.17;;;;;;;;;;5043467;28;20029;-79
2021/05/26 07:24:20;;;;;;;4.18;2.05;;;;;;;;;;5042331;28;20056;-76
2021/05/26 07:26:46;;;;;;;7.10;2.72;;;10.80;99.90;;;;;;5040321;28;20025;-79
2021/05/26 07:29:13;;;;;;;8.60;2.35;;;;;;;;;;5056907;28;20600;-78
2021/05/26 07:31:41;;;;;;;8.65;2.60;;;10.90;99.90;;;;;;5053898;28;20056;-78
2021/05/26 07:34:06;;;;;;;5.78;2.50;;;10.90;99.90;;;;;;5038724;28;20025;-76
2021/05/26 07:36:32;;;;;;;4.63;2.50;;;10.90;99.90;;;;;;5040381;28;20035;-77
2021/05/26 07:38:59;;;;;;;5.78;2.58;;;;;;;;;;5034372;28;20471;-80
2021/05/26 07:41:25;;;;;;;6.15;2.50;;;10.80;99.90;;;;;;5046017;28;20020;-79
2021/05/26 07:43:53;;;;;;;4.38;2.22;;;10.90;99.90;;;;;;5024257;28;20035;-77
2021/05/26 07:46:19;;;;;;;8.48;2.75;;;10.90;99.90;;;;;;5033209;28;20025;-78
2021/05/26 07:48:44;;;;;;;4.78;2.53;;;10.80;99.90;;;;;;5038780;28;20029;-78
2021/05/26 07:51:16;;;;;;;6.43;2.55;;;10.90;99.90;;;;;;5053166;28;20032;-77
2021/05/26 07:53:44;;;;;;;7.32;2.78;;;10.90;99.90;;;;;;5056594;28;20040;-80
2021/05/26 07:56:10;;;;;;;5.63;2.35;;;10.90;99.90;;;;;;5049577;28;20517;-76
2021/05/26 07:58:35;;;;;;;4.85;1.70;;;10.90;99.90;;;;;;5032215;28;20124;-76
2021/05/26 08:01:01;;;;;;;5.07;1.90;;;11.00;99.90;;;;;;5030247;28;20052;-74
2021/05/26 08:03:27;;;;;;;4.63;2.30;;;;;;;;;;5050203;28;20035;-74
2021/05/26 08:05:53;;;;;;;5.60;2.95;;;11.10;99.90;;;;;;5050511;28;20024;-78
2021/05/26 08:08:19;;;;;;;5.88;2.58;;;11.10;99.90;;;;;;5054339;28;20071;-76
2021/05/26 08:10:44;;;;;;;4.75;1.98;;;11.10;99.90;;;;;;5049381;28;20036;-76
2021/05/26 08:13:10;;;;;;;5.65;1.92;;;;;;;;;;5053377;28;20052;-74
2021/05/26 08:15:37;;;;;;;3.60;1.73;;;11.10;99.90;;;;;;5050248;28;20064;-76
2021/05/26 08:18:03;;;;;;;2.92;1.50;;;;;;;;;;5048967;28;20108;-76
2021/05/26 08:20:29;;;;;;;3.58;1.88;;;11.20;99.90;;;;;;5038124;28;20138;-76
2021/05/26 08:22:54;;;;;;;2.50;1.60;;;11.20;99.90;;;;;;5054104;28;20051;-75
2021/05/26 08:25:20;;;;;;;6.20;1.70;;;11.20;99.90;;;;;;5037556;28;20116;-76
2021/05/26 08:27:46;;;;;;;3.03;1.67;;;;;;;;;;5036385;28;20035;-77
2021/05/26 08:30:12;;;;;;;4.90;1.90;;;11.20;99.90;;;;;;5044654;28;20037;-76
2021/05/26 08:32:38;;;;;;;2.50;1.60;;;;;;;;;;5054008;28;20036;-76
2021/05/26 08:35:04;;;;;;;3.63;1.63;;;11.20;99.90;;;;;;5055473;28;20044;-80
2021/05/26 08:37:30;;;;;;;3.05;1.60;;;;;;;;;;5045593;28;21818;-77
2021/05/26 08:39:56;;;;;;;3.40;1.63;;;11.20;99.90;;;;;;5056341;28;20436;-76
2021/05/26 08:42:22;;;;;;;2.72;1.40;;;11.20;99.90;;;;;;5042950;28;20082;-75
2021/05/26 08:44:47;;;;;;;2.90;1.50;;;11.20;99.90;;;;;;5045518;28;20029;-76
2021/05/26 08:47:18;;;;;;;5.05;1.48;;;11.20;99.90;;;;;;5039788;28;20090;-76
2021/05/26 08:49:45;;;;;;;1.95;1.30;;;11.20;99.90;;;;;;5059303;28;20032;-77
2021/05/26 08:52:15;;;;;;;3.80;1.60;;;11.20;99.90;;;;;;5055024;28;20487;-76
2021/05/26 08:54:46;;;;;;;4.07;1.63;;;11.30;99.90;;;;;;5038325;28;20110;-75
2021/05/26 08:57:15;;;;;;;5.28;1.70;;;11.30;99.90;;;;;;5045081;28;20028;-74
2021/05/26 08:59:41;;;;;;;3.88;1.80;;;11.40;99.90;;;;;;5051611;28;20072;-77
2021/05/26 09:02:10;;;;;;;4.60;1.45;;;11.40;99.90;;;;;;5030795;28;20120;-78
2021/05/26 09:04:40;;;;;;;4.20;1.67;;;11.20;99.90;;;;;;5038105;28;20059;-75
2021/05/26 09:07:18;;;;;;;3.45;1.83;;;11.30;99.90;;;;;;5036691;28;20029;-75
2021/05/26 09:09:48;;;;;;;2.10;1.40;;;11.40;99.90;;;;;;5054599;28;20033;-77
2021/05/26 09:12:22;;;;;;;3.13;1.35;;;11.40;99.90;;;;;;5038014;28;20043;-77
2021/05/26 09:14:47;;;;;;;2.20;1.55;;;11.30;99.90;;;;;;5049517;28;20021;-77
2021/05/26 09:17:13;;;;;;;2.65;1.42;;;;;;;;;;5033346;28;20394;-76
2021/05/26 09:19:39;;;;;;;4.40;1.67;;;;;;;;;;5046286;28;20605;-78
2021/05/26 09:22:13;;;;;;;2.60;1.58;;;11.30;99.90;;;;;;5041181;28;20036;-75
2021/05/26 09:24:39;;;;;;;5.60;1.77;;;11.40;99.90;;;;;;5017481;28;20575;-78
2021/05/26 09:27:08;;;;;;;2.13;1.30;;;11.40;99.90;;;;;;5043249;28;20036;-78
2021/05/26 09:29:36;;;;;;;3.05;1.30;;;11.40;99.90;;;;;;5047946;28;20028;-82
2021/05/26 09:32:21;;;;;;;2.20;1.23;;;11.40;99.90;;;;;;5038082;28;20033;-81
2021/05/26 09:34:49;;;;;;;2.38;1.65;;;11.50;99.90;;;;;;5056471;28;20157;-75
2021/05/26 09:37:17;;;;;;;3.97;1.40;;;11.50;99.90;;;;;;5057208;28;20044;-77
2021/05/26 09:39:49;;;;;;;3.30;1.30;;;11.50;99.90;;;;;;5033729;28;20056;-78
2021/05/26 09:42:21;;;;;;;3.08;1.50;;;11.50;99.90;;;;;;5031015;28;20404;-80
2021/05/26 09:45:16;;;;;;;1.80;1.20;;;11.60;99.90;;;;;;5036617;28;20595;-79
2021/05/26 09:47:53;;;;;;;1.73;1.15;;;11.60;99.90;;;;;;5059139;28;20547;-83
2021/05/26 09:50:18;;;;;;;2.55;1.30;;;11.70;99.90;;;;;;5039276;28;20503;-75
2021/05/26 09:53:04;;;;;;;3.15;1.17;;;11.70;99.90;;;;;;5037499;28;20471;-76
2021/05/26 09:55:38;;;;;;;2.97;1.23;;;11.70;99.90;;;;;;5034039;28;20025;-74
2021/05/26 09:58:06;;;;;;;2.55;1.35;;;11.70;99.90;;;;;;5037669;28;20029;-79
2021/05/26 10:00:33;;;;;;;2.60;1.20;;;11.80;99.90;;;;;;5053478;28;20032;-77
2021/05/26 10:03:00;;;;;;;1.88;0.95;;;11.90;99.90;;;;;;5034885;28;20029;-76
2021/05/26 10:05:26;;;;;;;3.03;1.13;;;11.80;99.90;;;;;;5049649;28;20092;-76
2021/05/26 10:07:56;;;;;;;2.70;1.20;;;11.90;99.90;;;;;;5034143;28;20552;-76
2021/05/26 10:10:28;;;;;;;1.48;0.80;;;12.00;99.90;;;;;;5036975;28;20134;-75
2021/05/26 10:12:56;;;;;;;1.90;1.00;;;12.10;99.90;;;;;;5053443;28;20029;-81
2021/05/26 10:15:25;;;;;;;1.58;1.00;;;12.20;99.90;;;;;;5053490;28;20757;-76
2021/05/26 10:17:58;;;;;;;1.55;0.80;;;12.30;99.90;;;;;;5039077;28;20037;-76
2021/05/26 10:20:25;;;;;;;1.10;0.60;;;;;;;;;;5057283;28;20044;-77
2021/05/26 10:22:54;;;;;;;1.55;0.75;;;12.40;99.90;;;;;;5056271;28;20289;-76
2021/05/26 10:25:20;;;;;;;1.38;0.82;;;12.60;99.90;;;;;;5032430;28;20013;-76
2021/05/26 10:27:50;;;;;;;2.22;0.80;;;12.70;99.90;;;;;;5027837;28;20477;-78
2021/05/26 10:30:18;;;;;;;1.35;1.20;;;12.80;99.90;;;;;;5055660;28;20024;-78
2021/05/26 10:32:56;;;;;;;2.63;0.80;;;12.90;99.90;;;;;;5038557;28;20024;-78
2021/05/26 10:35:26;;;;;;;1.13;0.70;;;13.20;99.90;;;;;;5050215;28;20039;-77
2021/05/26 10:38:04;;;;;;;1.90;0.90;;;13.40;99.90;;;;;;5036492;28;20352;-76
2021/05/26 10:40:33;;;;;;;1.02;0.70;;;13.40;99.90;;;;;;5049948;28;20028;-75
2021/05/26 10:43:15;;;;;;;0.55;0.55;;;13.30;99.90;;;;;;5035449;28;20476;-79
2021/05/26 10:45:41;;;;;;;1.20;0.60;;;13.40;99.90;;;;;;5051699;28;20037;-77
2021/05/26 10:48:07;;;;;;;1.20;0.70;;;13.50;99.90;;;;;;5034486;28;20570;-77
2021/05/26 10:50:45;;;;;;;0.90;0.70;;;13.60;99.90;;;;;;5050695;28;20021;-76
2021/05/26 10:53:12;;;;;;;1.42;0.60;;;13.70;99.90;;;;;;5039245;28;20505;-77
2021/05/26 10:55:53;;;;;;;2.17;0.70;;;13.60;99.90;;;;;;5052859;28;20029;-77
2021/05/26 10:58:31;;;;;;;2.28;1.00;;;13.40;99.90;;;;;;5053823;28;20029;-78
2021/05/26 11:00:59;;;;;;;0.82;0.65;;;13.40;99.90;;;;;;5050168;28;20024;-74
2021/05/26 11:03:35;;;;;;;1.05;0.60;;;13.60;99.90;;;;;;5052099;28;20052;-77
2021/05/26 11:06:09;;;;;;;0.70;0.60;;;13.70;99.90;;;;;;5041861;28;20043;-76
2021/05/26 11:08:51;;;;;;;2.00;1.17;;;13.90;99.90;;;;;;5048222;28;20043;-79
2021/05/26 11:11:26;;;;;;;0.98;0.60;;;14.00;99.90;;;;;;5033471;28;20028;-76
2021/05/26 11:14:00;;;;;;;1.25;0.88;;;14.40;99.90;;;;;;5052620;28;20180;-78
2021/05/26 11:17:15;;;;;;;1.02;0.70;;;14.50;99.90;;;;;;5035861;28;20175;-76
2021/05/26 11:19:41;;;;;;;1.52;0.82;;;14.50;99.90;;;;;;5043422;28;20564;-73
2021/05/26 11:22:14;;;;;;;0.63;0.55;;;14.40;99.90;;;;;;5052016;28;20107;-79
2021/05/26 11:24:45;;;;;;;0.55;0.55;;;14.00;99.90;;;;;;5051399;28;20064;-78
2021/05/26 11:27:22;;;;;;;1.10;0.63;;;13.80;99.90;;;;;;5052609;28;20029;-79
2021/05/26 11:29:51;;;;;;;1.23;0.75;;;13.80;99.90;;;;;;5034399;28;21134;-75
2021/05/26 11:32:19;;;;;;;1.27;0.80;;;13.80;99.90;;;;;;5050245;28;20029;-79
2021/05/26 11:34:50;;;;;;;1.17;0.68;;;13.90;99.90;;;;;;5038892;28;20095;-77
2021/05/26 11:37:36;;;;;;;1.02;0.68;;;13.90;99.90;;;;;;5049456;28;20427;-78
2021/05/26 11:40:15;;;;;;;1.95;1.05;;;13.90;99.90;;;;;;5051601;28;20036;-76
2021/05/26 11:42:43;;;;;;;2.65;1.00;;;13.90;99.90;;;;;;5053392;28;20031;-78
2021/05/26 11:45:11;;;;;;;1.65;0.77;;;14.00;99.90;;;;;;5055900;28;20036;-79
2021/05/26 11:47:45;;;;;;;1.13;0.80;;;13.90;99.90;;;;;;5039138;28;20071;-78
2021/05/26 11:50:16;;;;;;;1.38;0.75;;;14.00;99.90;;;;;;5034268;28;20017;-76
2021/05/26 11:52:42;;;;;;;1.73;1.00;;;;;;;;;;5052547;28;20107;-76
2021/05/26 11:55:10;;;;;;;1.02;0.80;;;14.20;99.90;;;;;;5035695;28;20464;-75
2021/05/26 11:57:44;;;;;;;2.10;1.10;;;14.30;99.90;;;;;;5031796;28;20091;-77
2021/05/26 12:00:11;;;;;;;1.50;0.88;;;14.30;99.90;;;;;;5038449;28;20032;-77
2021/05/26 12:03:09;;;;;;;2.25;0.88;;;14.40;99.90;;;;;;5049001;28;20032;-76
2021/05/26 12:05:50;;;;;;;2.53;0.95;;;14.40;99.90;;;;;;5043604;28;20048;-76
2021/05/26 12:08:22;;;;;;;1.83;1.13;;;14.40;99.90;;;;;;5040147;28;20036;-77
2021/05/26 12:10:52;;;;;;;1.45;0.90;;;14.30;99.90;;;;;;5044425;28;20028;-76
2021/05/26 12:13:26;;;;;;;3.20;0.85;;;14.20;99.90;;;;;;5031982;28;20017;-74
2021/05/26 12:15:53;;;;;;;1.70;1.20;;;14.10;99.90;;;;;;5032287;28;20033;-76
2021/05/26 12:18:19;;;;;;;1.55;0.95;;;14.10;99.90;;;;;;5028238;28;20712;-77
2021/05/26 12:20:53;;;;;;;2.47;0.80;;;14.10;99.90;;;;;;5034219;28;20514;-76
2021/05/26 12:23:41;;;;;;;1.80;0.90;;;14.30;99.90;;;;;;5054417;28;20032;-76
2021/05/26 12:26:23;;;;;;;1.08;0.80;;;14.40;99.90;;;;;;5050006;28;20045;-79
2021/05/26 12:28:49;;;;;;;1.65;1.05;;;14.30;99.90;;;;;;5048225;28;20116;-79
2021/05/26 12:31:20;;;;;;;1.25;0.80;;;14.30;99.90;;;;;;5050431;28;20029;-76
2021/05/26 12:33:51;;;;;;;2.80;1.10;;;14.30;99.90;;;;;;5053163;28;20024;-78
2021/05/26 12:36:17;;;;;;;1.42;1.10;;;14.30;99.90;;;;;;5053334;28;20037;-77
2021/05/26 12:38:45;;;;;;;1.10;0.80;;;14.30;99.90;;;;;;5034991;28;20071;-77
2021/05/26 12:41:33;;;;;;;1.80;1.00;;;14.20;99.90;;;;;;5034975;28;20090;-74
2021/05/26 12:44:20;;;;;;;3.33;1.20;;;13.90;99.90;;;;;;5031678;28;20119;-77
2021/05/26 12:46:52;;;;;;;3.00;0.82;;;13.80;99.90;;;;;;5039103;28;20027;-78
2021/05/26 12:49:39;;;;;;;1.50;1.00;;;13.80;99.90;;;;;;5045402;28;20040;-76
2021/05/26 12:52:07;;;;;;;2.33;1.13;;;13.80;99.90;;;;;;5051315;28;20029;-75
2021/05/26 12:54:40;;;;;;;2.22;1.27;;;13.80;99.90;;;;;;5046944;28;20013;-75
2021/05/26 12:57:14;;;;;;;4.47;1.23;;;13.70;99.90;;;;;;5033955;28;20024;-76
2021/05/26 12:59:42;;;;;;;2.42;1.20;;;13.70;99.90;;;;;;5029964;28;20044;-75
2021/05/26 13:02:10;;;;;;;3.78;1.40;;;13.60;99.90;;;;;;5033870;28;20130;-77
2021/05/26 13:04:51;;;;;;;0.88;0.70;;;13.60;99.90;;;;;;5044517;28;20039;-76
2021/05/26 13:07:23;;;;;;;;;;;13.60;99.90;;;;;;5045750;28;20436;-77
2021/05/26 13:09:49;;;;;;;2.60;1.08;;;13.40;99.90;;;;;;5050398;28;20266;-76
2021/05/26 13:12:29;;;;;;;2.08;0.98;;;13.60;99.90;;;;;;5049448;28;20074;-76